Time;durP1;ratioP1;P1;durP2;ratioP2;P2;SDS_P1;SDS_P2;PMS_P1;PMS_P2;Temp;Humidity;BMP_temperature;BMP_pressure;BME280_temperature;BME280_humidity;BME280_pressure;Samples;Min_cycle;Max_cycle;Signal;HPM_P1;HPM_P2
2021/01/27 00:01:02;;;;;;;4.75;3.03;;;;;;;;;;4897730;29;20036;-22
2021/01/27 00:03:27;;;;;;;4.80;3.40;;;;;;;;;;4897477;29;20495;-22
2021/01/27 00:05:53;;;;;;;5.13;3.17;;;;;;;;;;4897540;29;20112;-22
2021/01/27 00:08:19;;;;;;;4.07;3.10;;;;;;;;;;4897443;29;20076;-22
2021/01/27 00:10:44;;;;;;;5.82;3.40;;;;;;;;;;4897298;29;20499;-22
2021/01/27 00:13:11;;;;;;;8.98;3.75;;;;;;;;;;4897348;29;20436;-21
2021/01/27 00:15:37;;;;;;;4.80;3.42;;;;;;;;;;4880605;29;20028;-22
2021/01/27 00:18:04;;;;;;;6.07;3.75;;;;;;;;;;4897349;29;20048;-22
2021/01/27 00:20:29;;;;;;;6.82;4.03;;;;;;;;;;4897139;29;20043;-22
2021/01/27 00:22:54;;;;;;;5.80;3.70;;;;;;;;;;4897238;29;20037;-22
2021/01/27 00:25:24;;;;;;;4.88;3.40;;;;;;;;;;4897409;29;20044;-22
2021/01/27 00:27:49;;;;;;;6.40;4.00;;;;;;;;;;4880415;29;20441;-22
2021/01/27 00:30:34;;;;;;;7.57;4.20;;;;;;;;;;4897134;29;20029;-22
2021/01/27 00:33:00;;;;;;;6.50;3.65;;;;;;;;;;4897163;29;20055;-21
2021/01/27 00:35:30;;;;;;;5.53;4.20;;;;;;;;;;4880284;29;20052;-22
2021/01/27 00:37:56;;;;;;;6.03;3.80;;;;;;;;;;4880289;29;20036;-22
2021/01/27 00:40:21;;;;;;;6.00;4.35;;;;;;;;;;4896953;29;20043;-22
2021/01/27 00:42:47;;;;;;;7.32;4.00;;;;;;;;;;4897165;29;20033;-22
2021/01/27 00:45:13;;;;;;;8.20;4.30;;;;;;;;;;4898868;29;20036;-22
2021/01/27 00:47:38;;;;;;;6.90;4.20;;;;;;;;;;4901267;29;20360;-22
2021/01/27 00:50:05;;;;;;;5.60;4.20;;;;;;;;;;4901005;29;20050;-22
2021/01/27 00:52:30;;;;;;;6.30;3.88;;;;;;;;;;4900817;29;20028;-22
2021/01/27 00:54:55;;;;;;;7.18;3.90;;;;;;;;;;4899552;29;20060;-22
2021/01/27 00:57:21;;;;;;;5.00;3.03;;;;;;;;;;4900793;29;20075;-23
2021/01/27 00:59:47;;;;;;;6.80;3.72;;;;;;;;;;4900660;29;20468;-23
2021/01/27 01:02:14;;;;;;;5.60;3.80;;;;;;;;;;4883766;29;20104;-23
2021/01/27 01:04:45;;;;;;;5.97;3.63;;;;;;;;;;4899464;29;20037;-22
2021/01/27 01:07:11;;;;;;;6.95;4.60;;;;;;;;;;4900502;29;20568;-21
2021/01/27 01:09:36;;;;;;;5.85;3.60;;;;;;;;;;4900534;29;20025;-22
2021/01/27 01:12:02;;;;;;;5.75;3.78;;;;;;;;;;4900485;29;20499;-20
2021/01/27 01:14:27;;;;;;;5.70;4.07;;;;;;;;;;4883657;29;20036;-21
2021/01/27 01:16:52;;;;;;;6.85;4.22;;;;;;;;;;4900485;29;20116;-22
2021/01/27 01:19:18;;;;;;;9.05;4.53;;;;;;;;;;4899079;29;20035;-20
2021/01/27 01:21:44;;;;;;;8.98;5.35;;;;;;;;;;4900587;29;20503;-22
2021/01/27 01:24:09;;;;;;;8.15;5.32;;;;;;;;;;4900311;29;20036;-21
2021/01/27 01:26:35;;;;;;;7.45;4.90;;;;;;;;;;4900388;29;20040;-21
2021/01/27 01:29:00;;;;;;;6.55;3.83;;;;;;;;;;4900388;29;20112;-21
2021/01/27 01:31:25;;;;;;;10.98;5.97;;;;;;;;;;4900148;29;20060;-22
2021/01/27 01:33:51;;;;;;;5.55;4.25;;;;;;;;;;4900217;29;20025;-21
2021/01/27 01:36:16;;;;;;;6.43;4.70;;;;;;;;;;4899958;29;20084;-22
2021/01/27 01:38:41;;;;;;;5.97;4.25;;;;;;;;;;4900346;29;20033;-22
2021/01/27 01:41:07;;;;;;;7.35;3.97;;;;;;;;;;4883165;29;20048;-23
2021/01/27 01:43:33;;;;;;;7.88;4.63;;;;;;;;;;4900114;29;20400;-21
2021/01/27 01:46:00;;;;;;;8.50;4.53;;;;;;;;;;4883154;29;20511;-21
2021/01/27 01:48:32;;;;;;;6.03;4.10;;;;;;;;;;4899769;29;20132;-21
2021/01/27 01:51:08;;;;;;;10.05;4.47;;;;;;;;;;4900054;29;20024;-23
2021/01/27 01:53:33;;;;;;;5.70;3.58;;;;;;;;;;4882894;29;20029;-23
2021/01/27 01:56:00;;;;;;;6.28;3.60;;;;;;;;;;4899704;29;20380;-22
2021/01/27 01:58:26;;;;;;;7.75;4.20;;;;;;;;;;4899775;29;20110;-23
2021/01/27 02:00:55;;;;;;;4.97;3.38;;;;;;;;;;4899645;29;20036;-22
2021/01/27 02:03:21;;;;;;;5.25;3.55;;;;;;;;;;4882701;29;20400;-22
2021/01/27 02:05:46;;;;;;;4.65;3.85;;;;;;;;;;4882776;29;20042;-22
2021/01/27 02:08:12;;;;;;;5.70;3.15;;;;;;;;;;4899502;29;20112;-22
2021/01/27 02:10:37;;;;;;;6.10;3.63;;;;;;;;;;4899791;29;20361;-23
2021/01/27 02:13:11;;;;;;;5.50;3.17;;;;;;;;;;4882573;29;20044;-22
2021/01/27 02:15:54;;;;;;;8.70;3.63;;;;;;;;;;4899576;29;20029;-22
2021/01/27 02:18:32;;;;;;;9.45;3.83;;;;;;;;;;4899138;29;20040;-22
2021/01/27 02:21:15;;;;;;;5.25;3.53;;;;;;;;;;4899324;29;20072;-22
2021/01/27 02:23:50;;;;;;;6.15;3.58;;;;;;;;;;4899325;29;20033;-22
2021/01/27 02:26:33;;;;;;;5.75;3.33;;;;;;;;;;4899209;29;20572;-22
2021/01/27 02:29:11;;;;;;;5.72;3.60;;;;;;;;;;4899311;29;20499;-22
2021/01/27 02:31:39;;;;;;;6.43;3.10;;;;;;;;;;4899157;29;20049;-22
2021/01/27 02:34:23;;;;;;;5.10;3.58;;;;;;;;;;4882279;29;20052;-22
2021/01/27 02:36:49;;;;;;;6.60;3.97;;;;;;;;;;4899369;29;20113;-21
2021/01/27 02:39:15;;;;;;;5.32;3.85;;;;;;;;;;4898926;29;20460;-22
2021/01/27 02:41:58;;;;;;;6.55;3.72;;;;;;;;;;4899008;29;20096;-21
2021/01/27 02:44:26;;;;;;;7.32;3.58;;;;;;;;;;4898952;29;20025;-22
2021/01/27 02:46:52;;;;;;;5.35;3.78;;;;;;;;;;4882027;29;20073;-22
2021/01/27 02:49:26;;;;;;;5.45;3.75;;;;;;;;;;4898748;29;20035;-22
2021/01/27 02:51:57;;;;;;;6.50;3.60;;;;;;;;;;4882060;29;20524;-21
2021/01/27 02:54:33;;;;;;;6.90;3.92;;;;;;;;;;4881804;29;20083;-22
2021/01/27 02:57:02;;;;;;;8.68;3.85;;;;;;;;;;4898747;29;20041;-23
2021/01/27 02:59:46;;;;;;;5.20;3.47;;;;;;;;;;4881631;29;20096;-22
2021/01/27 03:02:15;;;;;;;6.50;3.50;;;;;;;;;;4881631;29;20373;-23
2021/01/27 03:04:42;;;;;;;8.63;3.60;;;;;;;;;;4866200;29;20405;-23
2021/01/27 03:07:08;;;;;;;5.00;3.22;;;;;;;;;;4898431;29;20111;-22
2021/01/27 03:09:43;;;;;;;4.35;3.33;;;;;;;;;;4898213;29;20361;-23
2021/01/27 03:12:09;;;;;;;5.07;3.35;;;;;;;;;;4881598;29;20029;-23
2021/01/27 03:14:34;;;;;;;6.35;4.25;;;;;;;;;;4898532;29;20046;-23
2021/01/27 03:17:04;;;;;;;5.07;3.40;;;;;;;;;;4898372;29;20420;-23
2021/01/27 03:19:34;;;;;;;8.05;3.90;;;;;;;;;;4880201;29;20032;-22
2021/01/27 03:22:02;;;;;;;5.97;3.72;;;;;;;;;;4898428;29;20045;-22
2021/01/27 03:24:31;;;;;;;3.95;2.72;;;;;;;;;;4898259;29;20072;-23
2021/01/27 03:26:59;;;;;;;4.88;3.15;;;;;;;;;;4881460;29;20539;-22
2021/01/27 03:29:31;;;;;;;4.30;3.50;;;;;;;;;;4897941;29;20032;-22
2021/01/27 03:31:58;;;;;;;4.75;3.30;;;;;;;;;;4898011;29;20561;-22
2021/01/27 03:34:29;;;;;;;5.32;3.05;;;;;;;;;;4880818;29;20047;-22
2021/01/27 03:37:00;;;;;;;5.60;3.22;;;;;;;;;;4897982;29;20042;-22
2021/01/27 03:39:29;;;;;;;5.00;3.40;;;;;;;;;;4897828;29;20472;-23
2021/01/27 03:41:58;;;;;;;6.63;3.83;;;;;;;;;;4897885;29;20040;-22
2021/01/27 03:44:26;;;;;;;5.07;3.08;;;;;;;;;;4880935;29;20024;-22
2021/01/27 03:47:08;;;;;;;5.93;3.08;;;;;;;;;;4897862;29;20107;-23
2021/01/27 03:49:41;;;;;;;5.07;3.13;;;;;;;;;;4880937;29;20032;-22
2021/01/27 03:52:16;;;;;;;6.80;3.42;;;;;;;;;;4897732;29;20029;-22
2021/01/27 03:54:47;;;;;;;5.10;3.35;;;;;;;;;;4880976;29;20064;-23
2021/01/27 03:57:33;;;;;;;6.90;4.28;;;;;;;;;;4896397;29;20032;-22
2021/01/27 03:59:58;;;;;;;5.53;3.30;;;;;;;;;;4897077;29;20037;-23
2021/01/27 04:02:24;;;;;;;5.88;3.38;;;;;;;;;;4897453;29;20127;-22
2021/01/27 04:04:49;;;;;;;6.45;3.35;;;;;;;;;;4897489;29;20042;-23
2021/01/27 04:07:15;;;;;;;5.55;3.67;;;;;;;;;;4897381;29;20044;-22
2021/01/27 04:09:41;;;;;;;5.03;3.08;;;;;;;;;;4880677;29;20040;-22
2021/01/27 04:12:06;;;;;;;6.32;3.95;;;;;;;;;;4880487;29;20067;-22
2021/01/27 04:14:32;;;;;;;5.32;3.25;;;;;;;;;;4880451;29;20072;-22
2021/01/27 04:16:57;;;;;;;7.18;4.07;;;;;;;;;;4897727;29;20020;-22
2021/01/27 04:19:23;;;;;;;5.32;3.70;;;;;;;;;;4896363;29;20048;-23
2021/01/27 04:21:48;;;;;;;9.23;4.07;;;;;;;;;;4880480;29;20055;-23
2021/01/27 04:24:13;;;;;;;8.43;4.53;;;;;;;;;;4897505;29;20044;-22
2021/01/27 04:26:38;;;;;;;5.05;3.47;;;;;;;;;;4897376;29;20040;-22
2021/01/27 04:29:04;;;;;;;6.43;3.85;;;;;;;;;;4880455;29;20138;-23
2021/01/27 04:31:30;;;;;;;6.30;3.60;;;;;;;;;;4896999;29;20499;-23
2021/01/27 04:33:55;;;;;;;8.40;3.83;;;;;;;;;;4897422;29;20032;-22
2021/01/27 04:36:21;;;;;;;7.82;3.58;;;;;;;;;;4897405;29;20384;-22
2021/01/27 04:38:46;;;;;;;4.35;2.75;;;;;;;;;;4897379;29;20029;-22
2021/01/27 04:41:11;;;;;;;6.57;3.22;;;;;;;;;;4897132;29;20041;-22
2021/01/27 04:43:41;;;;;;;6.03;3.88;;;;;;;;;;4896928;29;20531;-22
2021/01/27 04:46:26;;;;;;;12.57;5.57;;;;;;;;;;4897170;29;20040;-22
2021/01/27 04:48:54;;;;;;;9.45;4.65;;;;;;;;;;4896924;29;20115;-22
2021/01/27 04:51:23;;;;;;;5.95;3.42;;;;;;;;;;4897027;29;20029;-22
2021/01/27 04:53:48;;;;;;;4.32;3.42;;;;;;;;;;4888924;29;20033;-22
2021/01/27 04:56:31;;;;;;;7.05;3.28;;;;;;;;;;4878374;29;20039;-22
2021/01/27 04:58:57;;;;;;;;;;;;;;;;;;4879002;29;20044;-22
2021/01/27 05:01:28;;;;;;;4.20;2.85;;;;;;;;;;4878515;29;19923;-22
2021/01/27 05:04:04;;;;;;;5.18;2.97;;;;;;;;;;4878240;29;20025;-22
2021/01/27 05:06:31;;;;;;;4.75;3.00;;;;;;;;;;4878267;29;20070;-23
2021/01/27 05:08:59;;;;;;;5.00;3.25;;;;;;;;;;4861403;29;20505;-22
2021/01/27 05:11:27;;;;;;;4.53;2.88;;;;;;;;;;4878229;29;20037;-23
2021/01/27 05:13:54;;;;;;;7.95;3.28;;;;;;;;;;4878124;29;20511;-22
2021/01/27 05:16:21;;;;;;;4.03;2.83;;;;;;;;;;4878339;29;20037;-23
2021/01/27 05:18:48;;;;;;;5.65;2.75;;;;;;;;;;4861422;29;20060;-22
2021/01/27 05:21:26;;;;;;;4.65;3.20;;;;;;;;;;4877973;29;20504;-23
2021/01/27 05:23:52;;;;;;;4.53;3.05;;;;;;;;;;4876789;29;20037;-22
2021/01/27 05:26:19;;;;;;;4.20;2.40;;;;;;;;;;4878049;29;20041;-22
2021/01/27 05:28:49;;;;;;;5.53;3.13;;;;;;;;;;4876818;29;20037;-22
2021/01/27 05:31:14;;;;;;;3.65;2.80;;;;;;;;;;4879126;29;20128;-22
2021/01/27 05:33:47;;;;;;;5.10;3.38;;;;;;;;;;4881569;29;20481;-22
2021/01/27 05:36:28;;;;;;;4.35;2.80;;;;;;;;;;4881724;29;20073;-22
2021/01/27 05:39:20;;;;;;;5.93;3.28;;;;;;;;;;4881567;29;20076;-22
2021/01/27 05:41:45;;;;;;;3.67;2.80;;;;;;;;;;4863601;29;20605;-23
2021/01/27 05:44:14;;;;;;;6.03;3.40;;;;;;;;;;4881400;29;20025;-22
2021/01/27 05:46:41;;;;;;;4.35;2.92;;;;;;;;;;4881311;29;20097;-22
2021/01/27 05:49:10;;;;;;;6.45;2.83;;;;;;;;;;4881179;29;20029;-22
2021/01/27 05:51:37;;;;;;;5.50;3.03;;;;;;;;;;4879976;29;20052;-22
2021/01/27 05:54:22;;;;;;;5.32;3.10;;;;;;;;;;4864457;29;20053;-22
2021/01/27 05:56:48;;;;;;;4.40;2.78;;;;;;;;;;4864341;29;20090;-22
2021/01/27 05:59:19;;;;;;;4.70;3.10;;;;;;;;;;4881039;29;20025;-22
2021/01/27 06:01:49;;;;;;;4.47;2.88;;;;;;;;;;4880729;29;20043;-22
2021/01/27 06:04:17;;;;;;;3.70;2.88;;;;;;;;;;4881193;29;20033;-22
2021/01/27 06:06:42;;;;;;;5.50;3.08;;;;;;;;;;4864139;29;20044;-22
2021/01/27 06:09:08;;;;;;;6.38;3.55;;;;;;;;;;4880913;29;20033;-22
2021/01/27 06:11:34;;;;;;;4.70;3.40;;;;;;;;;;4864146;29;20036;-22
2021/01/27 06:14:05;;;;;;;6.05;3.33;;;;;;;;;;4881050;29;20036;-23
2021/01/27 06:16:33;;;;;;;5.00;3.13;;;;;;;;;;4878549;29;20422;-21
2021/01/27 06:19:11;;;;;;;5.75;3.55;;;;;;;;;;4540956;29;9999987;-21
2021/01/27 06:21:47;;;;;;;4.93;3.88;;;;;;;;;;4877049;29;20059;-23
2021/01/27 06:24:22;;;;;;;5.68;3.83;;;;;;;;;;4877031;29;20025;-23
2021/01/27 06:26:57;;;;;;;6.90;4.35;;;;;;;;;;4899702;29;20041;-23
2021/01/27 06:29:32;;;;;;;4.78;3.55;;;;;;;;;;4895263;29;20040;-24
2021/01/27 06:32:16;;;;;;;5.85;2.78;;;;;;;;;;4895522;29;20117;-23
2021/01/27 06:34:55;;;;;;;5.82;3.10;;;;;;;;;;4895490;29;20431;-22
2021/01/27 06:37:32;;;;;;;9.52;4.35;;;;;;;;;;4895430;29;20025;-23
2021/01/27 06:40:18;;;;;;;5.05;2.60;;;;;;;;;;4895368;29;20063;-22
2021/01/27 06:42:44;;;;;;;5.95;4.22;;;;;;;;;;4894199;29;20041;-22
2021/01/27 06:45:15;;;;;;;4.97;3.17;;;;;;;;;;4895435;29;20032;-22
2021/01/27 06:47:50;;;;;;;5.10;2.70;;;;;;;;;;4878269;29;20036;-21
2021/01/27 06:50:27;;;;;;;4.45;3.10;;;;;;;;;;4895461;29;20028;-22
2021/01/27 06:53:14;;;;;;;5.65;3.20;;;;;;;;;;4895337;29;20040;-23
2021/01/27 06:56:05;;;;;;;6.40;3.05;;;;;;;;;;4895457;29;20032;-23
2021/01/27 06:58:50;;;;;;;5.90;4.15;;;;;;;;;;4870950;29;20285;-21
2021/01/27 07:01:38;;;;;;;4.07;3.22;;;;;;;;;;4895159;29;20507;-21
2021/01/27 07:04:03;;;;;;;6.32;4.68;;;;;;;;;;4876720;29;20064;-20
2021/01/27 07:06:49;;;;;;;5.90;3.20;;;;;;;;;;4878243;29;20048;-20
2021/01/27 07:09:15;;;;;;;5.07;3.60;;;;;;;;;;4895198;29;20112;-21
2021/01/27 07:12:07;;;;;;;4.68;2.75;;;;;;;;;;4893768;29;20108;-25
2021/01/27 07:14:39;;;;;;;1.73;1.63;;;;;;;;;;4895076;29;20500;-20
2021/01/27 07:17:18;;;;;;;4.47;3.53;;;;;;;;;;4894542;29;20388;-21
2021/01/27 07:19:57;;;;;;;6.45;3.30;;;;;;;;;;4894682;29;20041;-22
2021/01/27 07:22:23;;;;;;;5.10;3.08;;;;;;;;;;4884191;29;20076;-23
2021/01/27 07:25:06;;;;;;;4.32;2.92;;;;;;;;;;4876086;29;20622;-22
2021/01/27 07:27:31;;;;;;;;;;;;;;;;;;4859990;29;20044;-22
2021/01/27 07:30:05;;;;;;;5.55;3.65;;;;;;;;;;4874755;29;20071;-22
2021/01/27 07:32:40;;;;;;;4.15;2.83;;;;;;;;;;4875874;29;20456;-23
2021/01/27 07:35:05;;;;;;;6.18;3.08;;;;;;;;;;4873802;29;20052;-23
2021/01/27 07:37:34;;;;;;;4.32;3.25;;;;;;;;;;4874024;29;20025;-20
2021/01/27 07:40:17;;;;;;;10.50;4.60;;;;;;;;;;4875471;29;20036;-22
2021/01/27 07:42:48;;;;;;;4.13;2.33;;;;;;;;;;4874005;29;20069;-20
2021/01/27 07:45:21;;;;;;;6.03;3.28;;;;;;;;;;4876200;29;20035;-22
2021/01/27 07:48:05;;;;;;;4.85;3.38;;;;;;;;;;4875483;29;20041;-21
2021/01/27 07:50:31;;;;;;;6.93;2.50;;;;;;;;;;4858929;29;20482;-22
2021/01/27 07:52:57;;;;;;;8.35;6.22;;;;;;;;;;4875309;29;20121;-22
2021/01/27 07:55:25;;;;;;;7.28;3.42;;;;;;;;;;4875484;29;20041;-22
2021/01/27 07:58:08;;;;;;;4.13;3.03;;;;;;;;;;4875375;29;20815;-22
2021/01/27 08:00:54;;;;;;;5.72;3.28;;;;;;;;;;4874132;29;20128;-23
2021/01/27 08:03:38;;;;;;;5.25;2.85;;;;;;;;;;4875241;29;20045;-22
2021/01/27 08:06:18;;;;;;;8.35;3.08;;;;;;;;;;4875295;29;20123;-22
2021/01/27 08:08:55;;;;;;;4.70;2.35;;;;;;;;;;4875107;29;20120;-22
2021/01/27 08:11:27;;;;;;;4.65;2.58;;;;;;;;;;4875722;29;20100;-22
2021/01/27 08:13:52;;;;;;;8.98;3.45;;;;;;;;;;4875176;29;20040;-21
2021/01/27 08:16:29;;;;;;;4.25;2.60;;;;;;;;;;4875269;29;20132;-22
2021/01/27 08:19:08;;;;;;;5.28;2.50;;;;;;;;;;4890731;29;20039;-22
2021/01/27 08:21:46;;;;;;;3.30;1.83;;;;;;;;;;4893468;29;20092;-22
2021/01/27 08:24:29;;;;;;;3.63;2.40;;;;;;;;;;4893976;29;20088;-22
2021/01/27 08:26:55;;;;;;;5.15;2.13;;;;;;;;;;4893842;29;20051;-21
2021/01/27 08:29:28;;;;;;;4.82;2.20;;;;;;;;;;4893487;29;20028;-21
2021/01/27 08:32:13;;;;;;;4.35;2.67;;;;;;;;;;4893731;29;20147;-21
2021/01/27 08:34:42;;;;;;;2.70;2.10;;;;;;;;;;4873551;29;20048;-22
2021/01/27 08:37:08;;;;;;;3.13;1.98;;;;;;;;;;4893483;29;20036;-21
2021/01/27 08:39:33;;;;;;;2.47;1.63;;;;;;;;;;4891900;29;20035;-22
2021/01/27 08:42:19;;;;;;;3.85;2.45;;;;;;;;;;4893339;29;20723;-21
2021/01/27 08:44:44;;;;;;;3.92;1.88;;;;;;;;;;4893428;29;20479;-22
2021/01/27 08:47:16;;;;;;;3.63;2.03;;;;;;;;;;4893427;29;20028;-21
2021/01/27 08:49:52;;;;;;;3.88;2.40;;;;;;;;;;4893320;29;20033;-21
2021/01/27 08:52:18;;;;;;;5.18;2.95;;;;;;;;;;4893306;29;20072;-22
2021/01/27 08:54:45;;;;;;;3.78;2.92;;;;;;;;;;4893418;29;20033;-22
2021/01/27 08:57:29;;;;;;;3.13;2.20;;;;;;;;;;4893617;29;20044;-22
2021/01/27 08:59:58;;;;;;;3.75;2.40;;;;;;;;;;4876550;29;20044;-22
2021/01/27 09:02:42;;;;;;;4.88;2.72;;;;;;;;;;4893390;29;20661;-22
2021/01/27 09:05:20;;;;;;;4.28;2.50;;;;;;;;;;4892697;29;20555;-25
2021/01/27 09:08:04;;;;;;;2.72;2.28;;;;;;;;;;4879940;29;20032;-22
2021/01/27 09:10:32;;;;;;;3.83;2.20;;;;;;;;;;4897121;29;20047;-22
2021/01/27 09:12:57;;;;;;;4.63;2.60;;;;;;;;;;4897346;29;20056;-21
2021/01/27 09:15:31;;;;;;;5.60;2.97;;;;;;;;;;4896966;29;20791;-22
2021/01/27 09:17:57;;;;;;;2.53;1.70;;;;;;;;;;4896510;29;20036;-23
2021/01/27 09:20:24;;;;;;;4.22;2.40;;;;;;;;;;4897129;29;20039;-22
2021/01/27 09:22:55;;;;;;;3.05;1.98;;;;;;;;;;4880259;29;20108;-20
2021/01/27 09:25:21;;;;;;;2.50;1.63;;;;;;;;;;4879862;29;20441;-21
2021/01/27 09:27:58;;;;;;;2.20;1.67;;;;;;;;;;4896681;29;20029;-20
2021/01/27 09:30:26;;;;;;;2.28;1.60;;;;;;;;;;4896577;29;20025;-21
2021/01/27 09:32:51;;;;;;;3.42;2.15;;;;;;;;;;4896947;29;20048;-23
2021/01/27 09:35:20;;;;;;;3.00;1.83;;;;;;;;;;4897083;29;20043;-22
2021/01/27 09:38:06;;;;;;;3.15;1.95;;;;;;;;;;4879790;29;20491;-21
2021/01/27 09:40:34;;;;;;;3.50;1.90;;;;;;;;;;4889218;29;20051;-22
2021/01/27 09:43:01;;;;;;;2.22;1.75;;;;;;;;;;4879958;29;20036;-23
2021/01/27 09:45:29;;;;;;;2.08;1.42;;;;;;;;;;4896948;29;20028;-21
2021/01/27 09:47:55;;;;;;;3.65;2.03;;;;;;;;;;4896814;29;20043;-21
2021/01/27 09:50:20;;;;;;;2.00;1.80;;;;;;;;;;4896395;29;20040;-22
2021/01/27 09:52:51;;;;;;;4.00;2.03;;;;;;;;;;4896532;29;20029;-21
2021/01/27 09:55:17;;;;;;;4.63;2.47;;;;;;;;;;4896333;29;20033;-22
2021/01/27 09:57:43;;;;;;;4.32;1.90;;;;;;;;;;4879531;29;20037;-22
2021/01/27 10:00:10;;;;;;;3.53;1.73;;;;;;;;;;4895755;29;20043;-22
2021/01/27 10:02:35;;;;;;;3.65;2.20;;;;;;;;;;4895937;29;20127;-22
2021/01/27 10:05:02;;;;;;;2.05;1.85;;;;;;;;;;4894896;29;20107;-23
2021/01/27 10:07:36;;;;;;;3.65;2.00;;;;;;;;;;4895479;29;20084;-22
2021/01/27 10:10:09;;;;;;;3.75;2.00;;;;;;;;;;4879072;29;20041;-22
2021/01/27 10:12:34;;;;;;;;;;;;;;;;;;4896722;29;20100;-22
2021/01/27 10:15:32;;;;;;;1.27;1.02;;;;;;;;;;4896293;29;19919;-21
2021/01/27 10:18:08;;;;;;;1.52;1.38;;;;;;;;;;4887760;29;20132;-21
2021/01/27 10:20:34;;;;;;;2.17;1.27;;;;;;;;;;4879181;29;20128;-21
2021/01/27 10:23:08;;;;;;;2.67;1.63;;;;;;;;;;4895916;29;20036;-22
2021/01/27 10:25:38;;;;;;;3.13;1.65;;;;;;;;;;4879245;29;20041;-21
2021/01/27 10:28:06;;;;;;;2.28;1.33;;;;;;;;;;4896178;29;20044;-21
2021/01/27 10:30:33;;;;;;;2.03;1.25;;;;;;;;;;4878574;29;20013;-22
2021/01/27 10:32:58;;;;;;;9.85;4.90;;;;;;;;;;4895900;29;20045;-21
2021/01/27 10:35:24;;;;;;;2.65;1.60;;;;;;;;;;4895720;29;20377;-20
2021/01/27 10:38:01;;;;;;;2.03;1.60;;;;;;;;;;4895801;29;20116;-22
2021/01/27 10:40:28;;;;;;;1.92;1.17;;;;;;;;;;4895584;29;20033;-20
2021/01/27 10:42:54;;;;;;;1.75;1.35;;;;;;;;;;4895613;29;20044;-20
2021/01/27 10:45:24;;;;;;;1.48;1.15;;;;;;;;;;4895690;29;20036;-21
2021/01/27 10:48:16;;;;;;;1.95;1.25;;;;;;;;;;4895463;29;20737;-22
2021/01/27 10:50:46;;;;;;;1.60;1.00;;;;;;;;;;4892721;29;20049;-22
2021/01/27 10:53:13;;;;;;;1.40;0.80;;;;;;;;;;4878708;29;20515;-22
2021/01/27 10:55:39;;;;;;;1.75;0.98;;;;;;;;;;4895343;29;20120;-23
2021/01/27 10:58:06;;;;;;;2.30;1.23;;;;;;;;;;4878220;29;20834;-22
2021/01/27 11:00:32;;;;;;;1.58;0.95;;;;;;;;;;4895096;29;20535;-22
2021/01/27 11:02:57;;;;;;;1.50;1.10;;;;;;;;;;4878109;29;20041;-22
2021/01/27 11:05:23;;;;;;;1.55;1.10;;;;;;;;;;4889799;29;20024;-22
2021/01/27 11:07:48;;;;;;;1.55;1.17;;;;;;;;;;4897049;29;20550;-22
2021/01/27 11:10:14;;;;;;;2.00;0.90;;;;;;;;;;4914471;29;20040;-22
2021/01/27 11:12:39;;;;;;;0.75;0.75;;;;;;;;;;4914173;29;20079;-22
2021/01/27 11:15:05;;;;;;;2.55;1.10;;;;;;;;;;4913988;29;20111;-22
2021/01/27 11:17:31;;;;;;;1.45;1.20;;;;;;;;;;4913395;29;20028;-22
2021/01/27 11:19:56;;;;;;;1.67;0.98;;;;;;;;;;4913566;29;20063;-22
2021/01/27 11:22:22;;;;;;;2.03;1.15;;;;;;;;;;4896575;29;20044;-22
2021/01/27 11:24:47;;;;;;;1.05;0.80;;;;;;;;;;4913259;29;20032;-20
2021/01/27 11:27:13;;;;;;;0.85;0.57;;;;;;;;;;4912782;29;20518;-20
2021/01/27 11:29:38;;;;;;;1.45;1.08;;;;;;;;;;4912894;29;20032;-19
2021/01/27 11:32:04;;;;;;;1.85;0.88;;;;;;;;;;4913502;29;20543;-20
2021/01/27 11:34:30;;;;;;;1.15;0.80;;;;;;;;;;4913376;29;20040;-20
2021/01/27 11:36:55;;;;;;;1.27;0.98;;;;;;;;;;4913766;29;20226;-20
2021/01/27 11:39:20;;;;;;;1.75;1.00;;;;;;;;;;4913545;29;20040;-21
2021/01/27 11:41:46;;;;;;;0.70;0.70;;;;;;;;;;4895880;29;20047;-21
2021/01/27 11:44:12;;;;;;;1.67;0.90;;;;;;;;;;4913794;29;20539;-21
2021/01/27 11:46:37;;;;;;;2.15;1.42;;;;;;;;;;4913354;29;20036;-20
2021/01/27 11:49:03;;;;;;;2.38;1.00;;;;;;;;;;4913705;29;20103;-21
2021/01/27 11:51:29;;;;;;;1.67;1.00;;;;;;;;;;4913711;29;20087;-21
2021/01/27 11:53:54;;;;;;;1.90;1.17;;;;;;;;;;4913293;29;20438;-21
2021/01/27 11:56:20;;;;;;;1.02;0.70;;;;;;;;;;4913236;29;20448;-22
2021/01/27 11:58:45;;;;;;;2.55;1.00;;;;;;;;;;4910407;29;20523;-21
2021/01/27 12:01:10;;;;;;;1.52;0.82;;;;;;;;;;4894147;29;20066;-21
2021/01/27 12:03:36;;;;;;;1.90;1.05;;;;;;;;;;4893880;29;20524;-20
2021/01/27 12:06:01;;;;;;;0.90;0.70;;;;;;;;;;4893565;29;20044;-21
2021/01/27 12:08:27;;;;;;;5.13;1.58;;;;;;;;;;4893883;29;20108;-21
2021/01/27 12:10:52;;;;;;;2.22;1.20;;;;;;;;;;4894130;29;20028;-21
2021/01/27 12:13:18;;;;;;;1.60;1.30;;;;;;;;;;4876822;29;20176;-21
2021/01/27 12:15:44;;;;;;;1.55;1.00;;;;;;;;;;4894217;29;20040;-21
2021/01/27 12:18:11;;;;;;;2.08;1.48;;;;;;;;;;4876847;29;20036;-21
2021/01/27 12:20:39;;;;;;;1.58;1.27;;;;;;;;;;4893768;29;20064;-22
2021/01/27 12:23:05;;;;;;;1.63;0.90;;;;;;;;;;4894311;29;20236;-22
2021/01/27 12:25:30;;;;;;;1.13;0.88;;;;;;;;;;4894264;29;20032;-22
2021/01/27 12:27:56;;;;;;;2.15;1.27;;;;;;;;;;4894187;29;20472;-22
2021/01/27 12:30:22;;;;;;;1.67;0.93;;;;;;;;;;4893515;29;20041;-21
2021/01/27 12:32:48;;;;;;;1.60;0.82;;;;;;;;;;4894042;29;20056;-22
2021/01/27 12:35:13;;;;;;;2.08;1.02;;;;;;;;;;4894148;29;20040;-22
2021/01/27 12:37:39;;;;;;;1.58;0.85;;;;;;;;;;4877019;29;20408;-21
2021/01/27 12:40:06;;;;;;;12.85;1.48;;;;;;;;;;4876588;29;20112;-22
2021/01/27 12:42:33;;;;;;;3.53;1.10;;;;;;;;;;4893290;29;20763;-22
2021/01/27 12:44:58;;;;;;;2.13;1.08;;;;;;;;;;4894134;29;20054;-23
2021/01/27 12:47:23;;;;;;;3.00;1.13;;;;;;;;;;4893828;29;20480;-21
2021/01/27 12:49:49;;;;;;;3.10;1.30;;;;;;;;;;4876988;29;20092;-22
2021/01/27 12:52:15;;;;;;;3.70;1.52;;;;;;;;;;4877024;29;20066;-21
2021/01/27 12:54:40;;;;;;;3.47;1.30;;;;;;;;;;4892962;29;20039;-22
2021/01/27 12:57:05;;;;;;;2.35;1.20;;;;;;;;;;4893667;29;20750;-21
2021/01/27 12:59:31;;;;;;;2.50;1.27;;;;;;;;;;4893416;29;20453;-22
2021/01/27 13:01:57;;;;;;;1.92;1.15;;;;;;;;;;4892272;29;20052;-23
2021/01/27 13:04:22;;;;;;;2.33;1.17;;;;;;;;;;4893409;29;20115;-22
2021/01/27 13:06:48;;;;;;;1.38;0.88;;;;;;;;;;4876474;29;20040;-22
2021/01/27 13:09:13;;;;;;;2.10;1.02;;;;;;;;;;4893814;29;20072;-22
2021/01/27 13:11:38;;;;;;;3.05;0.90;;;;;;;;;;4893836;29;20463;-23
2021/01/27 13:14:04;;;;;;;1.92;1.10;;;;;;;;;;4893847;29;20628;-22
2021/01/27 13:16:29;;;;;;;2.13;0.95;;;;;;;;;;4893585;29;20614;-22
2021/01/27 13:18:55;;;;;;;1.73;1.10;;;;;;;;;;4893518;29;20025;-22
2021/01/27 13:21:20;;;;;;;1.38;1.20;;;;;;;;;;4893483;29;20132;-21
2021/01/27 13:23:48;;;;;;;1.42;1.02;;;;;;;;;;4893574;29;20043;-22
2021/01/27 13:26:16;;;;;;;2.08;1.17;;;;;;;;;;4893536;29;20040;-22
2021/01/27 13:28:42;;;;;;;1.48;0.85;;;;;;;;;;4893003;29;20037;-21
2021/01/27 13:31:08;;;;;;;2.05;1.17;;;;;;;;;;4893251;29;20104;-22
2021/01/27 13:33:33;;;;;;;1.50;0.90;;;;;;;;;;4893254;29;20047;-22
2021/01/27 13:35:59;;;;;;;1.20;0.75;;;;;;;;;;4876750;29;20041;-23
2021/01/27 13:38:24;;;;;;;1.00;0.90;;;;;;;;;;4893694;29;20072;-26
2021/01/27 13:40:50;;;;;;;3.40;0.80;;;;;;;;;;4893220;29;20078;-22
2021/01/27 13:43:16;;;;;;;2.83;1.27;;;;;;;;;;4893104;29;20036;-22
2021/01/27 13:45:41;;;;;;;0.90;0.70;;;;;;;;;;4892973;29;20036;-22
2021/01/27 13:48:07;;;;;;;2.25;1.40;;;;;;;;;;4893386;29;20532;-22
2021/01/27 13:50:33;;;;;;;5.07;1.15;;;;;;;;;;4876173;29;20532;-23
2021/01/27 13:52:58;;;;;;;1.40;1.00;;;;;;;;;;4878357;29;20041;-23
2021/01/27 13:55:24;;;;;;;2.22;1.23;;;;;;;;;;4896673;29;20036;-22
2021/01/27 13:57:50;;;;;;;2.67;1.23;;;;;;;;;;4896434;29;20104;-22
2021/01/27 14:00:17;;;;;;;3.08;1.13;;;;;;;;;;4896243;29;20442;-22
2021/01/27 14:02:42;;;;;;;1.48;1.38;;;;;;;;;;4896465;29;20115;-22
2021/01/27 14:05:08;;;;;;;2.35;1.15;;;;;;;;;;4896281;29;20481;-23
2021/01/27 14:07:34;;;;;;;2.25;1.13;;;;;;;;;;4894775;29;20039;-24
2021/01/27 14:09:59;;;;;;;1.00;0.90;;;;;;;;;;4879461;29;20447;-23
2021/01/27 14:12:26;;;;;;;1.83;1.20;;;;;;;;;;4896307;29;20040;-23
2021/01/27 14:14:51;;;;;;;3.05;1.45;;;;;;;;;;4896283;29;20040;-23
2021/01/27 14:17:17;;;;;;;1.63;1.20;;;;;;;;;;4896142;29;20089;-23
2021/01/27 14:19:43;;;;;;;3.63;1.38;;;;;;;;;;4896101;29;20040;-23
2021/01/27 14:22:08;;;;;;;2.58;1.50;;;;;;;;;;4896070;29;20053;-23
2021/01/27 14:24:34;;;;;;;2.25;1.30;;;;;;;;;;4879274;29;20535;-23
2021/01/27 14:26:59;;;;;;;3.00;1.52;;;;;;;;;;4879452;29;20052;-23
2021/01/27 14:29:25;;;;;;;3.08;1.77;;;;;;;;;;4878645;29;20061;-21
2021/01/27 14:31:50;;;;;;;4.15;2.35;;;;;;;;;;4878813;29;20095;-22
2021/01/27 14:34:16;;;;;;;4.70;1.85;;;;;;;;;;4896102;29;20028;-21
2021/01/27 14:36:41;;;;;;;1.80;1.58;;;;;;;;;;4879049;29;20036;-22
2021/01/27 14:39:08;;;;;;;3.92;2.30;;;;;;;;;;4895837;29;20060;-22
2021/01/27 14:41:33;;;;;;;2.60;1.55;;;;;;;;;;4895468;29;20044;-21
2021/01/27 14:43:58;;;;;;;2.50;1.50;;;;;;;;;;4895708;29;20384;-21
2021/01/27 14:46:24;;;;;;;2.17;1.20;;;;;;;;;;4895621;29;20132;-21
2021/01/27 14:48:50;;;;;;;3.10;1.58;;;;;;;;;;4895787;29;20029;-21
2021/01/27 14:51:15;;;;;;;3.22;1.75;;;;;;;;;;4895617;29;20039;-21
2021/01/27 14:53:41;;;;;;;3.60;1.73;;;;;;;;;;4893811;29;20033;-22
2021/01/27 14:56:06;;;;;;;5.72;1.60;;;;;;;;;;4895979;29;20072;-21